Time;durP1;ratioP1;P1;durP2;ratioP2;P2;SDS_P1;SDS_P2;PMS_P1;PMS_P2;Temp;Humidity;BMP_temperature;BMP_pressure;BME280_temperature;BME280_humidity;BME280_pressure;Samples;Min_cycle;Max_cycle;Signal;HPM_P1;HPM_P2
2023/05/24 00:00:47;;;;;;;9.00;3.00;;;22.00;44.80;;;;;;4995000;28;20445;-80
2023/05/24 00:03:17;;;;;;;9.70;3.70;;;22.00;45.00;;;;;;4995695;28;20525;-80
2023/05/24 00:05:46;;;;;;;8.60;3.30;;;22.00;44.90;;;;;;4991584;28;20481;-80
2023/05/24 00:08:17;;;;;;;8.83;3.23;;;22.00;45.20;;;;;;4990560;28;20445;-80
2023/05/24 00:10:47;;;;;;;11.17;4.03;;;21.90;45.10;;;;;;4994074;28;20469;-80
2023/05/24 00:13:17;;;;;;;6.93;3.03;;;21.90;45.20;;;;;;4989994;28;20464;-80
2023/05/24 00:15:45;;;;;;;8.83;3.90;;;21.90;45.30;;;;;;4994847;28;20446;-80
2023/05/24 00:18:16;;;;;;;8.10;3.90;;;21.90;45.40;;;;;;4995461;28;20463;-79
2023/05/24 00:20:45;;;;;;;7.90;3.57;;;21.80;45.40;;;;;;4995756;28;20456;-79
2023/05/24 00:23:14;;;;;;;8.40;3.60;;;21.80;45.60;;;;;;4991245;28;20481;-79
2023/05/24 00:25:42;;;;;;;9.70;3.33;;;21.80;45.60;;;;;;4989254;28;20495;-80
2023/05/24 00:28:16;;;;;;;9.77;3.80;;;21.80;45.70;;;;;;4996338;28;20469;-80
2023/05/24 00:30:47;;;;;;;11.13;3.50;;;21.80;45.80;;;;;;4995576;28;20453;-79
2023/05/24 00:33:22;;;;;;;8.13;3.63;;;21.70;45.80;;;;;;4994546;28;20449;-80
2023/05/24 00:35:53;;;;;;;5.67;3.20;;;21.70;45.80;;;;;;4994059;28;20432;-80
2023/05/24 00:38:24;;;;;;;16.33;4.43;;;21.70;45.80;;;;;;4995017;28;20542;-80
2023/05/24 00:40:52;;;;;;;7.63;3.20;;;21.70;45.80;;;;;;4993896;28;20525;-80
2023/05/24 00:43:21;;;;;;;9.73;3.77;;;21.70;45.80;;;;;;4995294;28;20849;-79
2023/05/24 00:45:54;;;;;;;7.63;3.60;;;21.70;45.90;;;;;;4994631;28;20469;-79
2023/05/24 00:48:26;;;;;;;5.67;3.20;;;21.70;46.70;;;;;;4988034;28;20477;-79
2023/05/24 00:50:57;;;;;;;7.40;3.10;;;21.70;46.10;;;;;;4987526;28;20448;-80
2023/05/24 00:53:30;;;;;;;7.43;3.50;;;21.60;46.10;;;;;;4992308;28;20445;-80
2023/05/24 00:56:05;;;;;;;7.30;3.30;;;21.60;46.30;;;;;;4989113;28;20823;-80
2023/05/24 00:58:35;;;;;;;10.53;3.70;;;21.60;46.40;;;;;;4993907;28;20441;-79
2023/05/24 01:01:05;;;;;;;10.53;3.40;;;21.60;46.40;;;;;;5002046;28;20451;-80
2023/05/24 01:03:34;;;;;;;6.67;3.00;;;21.60;46.40;;;;;;4994431;28;20479;-79
2023/05/24 01:06:08;;;;;;;7.83;3.53;;;21.60;46.40;;;;;;4992357;28;20473;-79
2023/05/24 01:08:50;;;;;;;7.07;3.47;;;21.60;46.60;;;;;;4993242;28;20460;-79
2023/05/24 01:11:26;;;;;;;5.70;2.73;;;21.50;46.50;;;;;;4991712;28;20456;-79
2023/05/24 01:14:07;;;;;;;8.03;3.10;;;21.50;46.40;;;;;;4991614;28;20472;-79
2023/05/24 01:16:45;;;;;;;12.60;3.40;;;21.50;46.60;;;;;;4993127;28;20439;-79
2023/05/24 01:19:42;;;;;;;9.00;3.60;;;21.50;46.60;;;;;;4993120;28;20479;-79
2023/05/24 01:22:20;;;;;;;10.33;3.97;;;21.50;46.70;;;;;;4987596;28;20448;-79
2023/05/24 01:24:56;;;;;;;7.60;2.83;;;21.50;46.70;;;;;;4992188;28;20473;-80
2023/05/24 01:30:14;;;;;;;10.33;3.80;;;21.50;46.90;;;;;;4991770;28;20452;-81
2023/05/24 01:32:44;;;;;;;8.83;3.10;;;21.50;47.00;;;;;;4994678;28;20452;-81
2023/05/24 01:35:14;;;;;;;6.83;3.40;;;21.50;47.00;;;;;;4984609;28;20444;-81
2023/05/24 01:37:45;;;;;;;7.13;3.10;;;21.50;47.00;;;;;;4995418;28;20441;-81
2023/05/24 01:40:13;;;;;;;8.40;3.13;;;21.40;46.90;;;;;;4996674;28;20453;-81
2023/05/24 01:42:45;;;;;;;8.00;2.97;;;21.40;47.00;;;;;;4993510;28;20476;-81
2023/05/24 01:45:17;;;;;;;13.70;3.50;;;21.40;47.20;;;;;;4996238;28;20515;-81
2023/05/24 01:47:52;;;;;;;9.80;3.20;;;21.40;47.10;;;;;;4996053;28;20452;-81
2023/05/24 01:50:22;;;;;;;5.30;3.10;;;21.40;47.20;;;;;;4998469;28;20452;-81
2023/05/24 01:52:52;;;;;;;7.00;3.50;;;21.30;47.20;;;;;;4997369;28;20453;-80
2023/05/24 01:55:23;;;;;;;8.80;3.00;;;21.30;47.20;;;;;;4996901;28;20469;-81
2023/05/24 01:57:53;;;;;;;8.20;4.00;;;21.30;47.10;;;;;;4989332;28;20449;-80
2023/05/24 02:00:21;;;;;;;7.57;3.40;;;21.30;47.30;;;;;;4997248;28;20508;-79
2023/05/24 02:02:49;;;;;;;6.87;3.47;;;21.30;47.50;;;;;;4997853;28;20449;-79
2023/05/24 02:05:19;;;;;;;6.00;3.20;;;21.30;47.50;;;;;;4994523;28;20472;-79
2023/05/24 02:07:47;;;;;;;7.63;3.50;;;21.30;47.70;;;;;;4993817;28;20505;-79
2023/05/24 02:10:15;;;;;;;10.90;3.63;;;21.30;48.30;;;;;;4991128;28;20437;-79
2023/05/24 02:12:43;;;;;;;7.57;3.30;;;21.30;47.70;;;;;;4995745;28;20445;-79
2023/05/24 02:15:14;;;;;;;6.73;3.27;;;21.20;47.50;;;;;;4997207;28;20543;-79
2023/05/24 02:17:42;;;;;;;4.30;3.03;;;21.30;47.70;;;;;;4996474;28;20445;-79
2023/05/24 02:20:12;;;;;;;7.50;3.30;;;21.20;47.80;;;;;;4997761;28;20962;-79
2023/05/24 02:22:41;;;;;;;9.80;3.33;;;21.20;47.70;;;;;;4994436;28;20445;-79
2023/05/24 02:25:09;;;;;;;6.90;3.13;;;21.20;48.40;;;;;;4985530;28;20469;-79
2023/05/24 02:27:38;;;;;;;6.73;3.30;;;21.20;47.90;;;;;;4996328;28;20476;-79
2023/05/24 02:30:07;;;;;;;6.30;3.27;;;21.20;47.90;;;;;;4992895;28;20490;-79
2023/05/24 02:32:36;;;;;;;9.33;3.50;;;21.20;48.00;;;;;;4995985;28;20440;-79
2023/05/24 02:35:06;;;;;;;7.50;3.60;;;21.20;48.00;;;;;;4995565;28;20465;-79
2023/05/24 02:37:34;;;;;;;8.93;3.33;;;21.20;48.00;;;;;;4990058;28;20441;-79
2023/05/24 02:40:03;;;;;;;8.93;3.60;;;21.20;48.10;;;;;;4995242;28;20449;-79
2023/05/24 02:42:31;;;;;;;6.13;2.90;;;21.20;48.10;;;;;;4994708;28;20511;-79
2023/05/24 02:44:59;;;;;;;6.83;3.30;;;21.10;48.10;;;;;;4994648;28;20476;-79
2023/05/24 02:47:27;;;;;;;10.10;3.20;;;21.10;48.10;;;;;;4990498;28;20508;-79
2023/05/24 02:49:57;;;;;;;10.60;3.90;;;21.10;48.20;;;;;;4995776;28;20457;-79
2023/05/24 02:52:25;;;;;;;11.30;3.00;;;21.10;48.30;;;;;;4995395;28;20449;-79
2023/05/24 02:54:53;;;;;;;7.33;3.53;;;21.10;48.20;;;;;;4991380;28;20529;-79
2023/05/24 03:01:09;;;;;;;8.60;3.30;;;21.10;48.20;;;;;;4989425;28;20451;-78
2023/05/24 03:03:37;;;;;;;8.80;3.60;;;21.10;48.40;;;;;;4995663;28;20469;-79
2023/05/24 03:06:07;;;;;;;6.93;3.03;;;21.10;48.50;;;;;;4995304;28;20492;-79
2023/05/24 03:08:36;;;;;;;5.37;3.40;;;21.10;48.40;;;;;;4991393;28;20469;-79
2023/05/24 03:11:04;;;;;;;7.50;3.70;;;21.00;49.00;;;;;;4993212;28;20480;-79
2023/05/24 03:13:32;;;;;;;9.40;3.73;;;21.00;48.50;;;;;;4995494;28;20452;-79
2023/05/24 03:16:00;;;;;;;8.83;3.27;;;21.00;48.50;;;;;;4995083;28;20484;-79
2023/05/24 03:18:28;;;;;;;9.60;3.77;;;21.00;48.60;;;;;;4995791;28;20458;-79
2023/05/24 03:20:56;;;;;;;9.77;3.43;;;21.00;48.60;;;;;;4996174;28;20519;-79
2023/05/24 03:23:25;;;;;;;7.77;3.40;;;21.00;48.60;;;;;;4996139;28;20453;-79
2023/05/24 03:25:55;;;;;;;9.77;3.50;;;21.00;48.60;;;;;;4994836;28;20445;-79
2023/05/24 03:28:23;;;;;;;5.07;3.20;;;21.00;48.60;;;;;;4996211;28;20473;-79
2023/05/24 03:30:51;;;;;;;8.60;3.33;;;21.00;48.60;;;;;;4995340;28;20453;-79
2023/05/24 03:33:19;;;;;;;7.33;2.80;;;21.00;48.70;;;;;;4987840;28;20504;-79
2023/05/24 03:35:47;;;;;;;6.50;3.20;;;21.00;49.40;;;;;;4994465;28;20445;-79
2023/05/24 03:38:16;;;;;;;7.13;3.27;;;21.00;48.70;;;;;;4994923;28;20453;-79
2023/05/24 03:40:45;;;;;;;10.43;3.60;;;21.00;48.70;;;;;;4987464;28;20453;-79
2023/05/24 03:43:14;;;;;;;7.97;3.80;;;21.00;48.60;;;;;;4995543;28;20449;-79
2023/05/24 03:45:42;;;;;;;7.83;3.30;;;21.00;48.70;;;;;;4993367;28;20477;-79
2023/05/24 03:48:10;;;;;;;6.00;3.60;;;21.00;48.70;;;;;;4995320;28;20498;-79
2023/05/24 03:50:38;;;;;;;9.10;3.63;;;21.00;48.90;;;;;;4987733;28;20437;-79
2023/05/24 03:53:07;;;;;;;9.97;3.30;;;21.00;48.80;;;;;;4994092;28;20449;-79
2023/05/24 03:55:35;;;;;;;8.27;4.33;;;21.00;48.80;;;;;;4995560;28;20512;-79
2023/05/24 03:58:05;;;;;;;18.70;2.90;;;21.00;48.80;;;;;;4994916;28;20510;-79
2023/05/24 04:00:33;;;;;;;7.00;3.63;;;21.00;48.90;;;;;;4994189;28;20453;-79
2023/05/24 04:03:01;;;;;;;6.03;3.37;;;21.00;48.70;;;;;;4993031;28;20824;-77
2023/05/24 04:05:29;;;;;;;6.77;2.80;;;21.00;49.00;;;;;;4992619;28;20527;-77
2023/05/24 04:07:57;;;;;;;7.50;3.27;;;21.10;48.80;;;;;;5000018;28;20536;-77
2023/05/24 04:10:25;;;;;;;6.37;3.77;;;21.00;48.80;;;;;;4995175;28;20453;-78
2023/05/24 04:12:53;;;;;;;6.13;2.73;;;21.00;48.90;;;;;;4993272;28;20472;-78
2023/05/24 04:15:22;;;;;;;7.30;3.60;;;21.00;48.90;;;;;;4992784;28;20472;-78
2023/05/24 04:17:53;;;;;;;4.87;3.20;;;21.00;48.80;;;;;;4994733;28;20449;-78
2023/05/24 04:20:24;;;;;;;7.90;3.80;;;21.00;48.80;;;;;;4993733;28;20519;-78
2023/05/24 04:22:52;;;;;;;9.37;3.37;;;21.10;49.00;;;;;;4987691;28;20485;-77
2023/05/24 04:25:20;;;;;;;5.33;3.00;;;21.10;48.80;;;;;;4989552;28;20484;-77
2023/05/24 04:27:49;;;;;;;9.23;3.23;;;21.00;48.90;;;;;;4993388;28;20471;-78
2023/05/24 04:30:17;;;;;;;10.87;3.30;;;21.00;48.70;;;;;;4993804;28;20547;-78
2023/05/24 04:32:47;;;;;;;6.40;3.70;;;21.10;48.90;;;;;;4993515;28;20503;-78
2023/05/24 04:35:15;;;;;;;6.17;3.50;;;21.10;48.90;;;;;;4992645;28;20516;-78
2023/05/24 04:37:45;;;;;;;12.20;3.30;;;21.10;48.80;;;;;;4993942;28;20508;-78
2023/05/24 04:40:14;;;;;;;8.40;3.57;;;21.00;49.00;;;;;;4993277;28;20488;-78
2023/05/24 04:42:42;;;;;;;6.60;3.40;;;21.00;49.00;;;;;;4995023;28;20453;-78
2023/05/24 04:45:11;;;;;;;6.37;2.90;;;21.10;49.10;;;;;;4992891;28;20469;-78
2023/05/24 04:47:39;;;;;;;9.77;3.30;;;21.10;49.00;;;;;;4993091;28;20496;-78
2023/05/24 04:50:09;;;;;;;7.07;3.20;;;21.10;49.00;;;;;;4993150;28;20460;-78
2023/05/24 04:52:37;;;;;;;8.13;3.67;;;21.10;49.10;;;;;;4985535;28;20445;-78
2023/05/24 04:55:06;;;;;;;6.50;3.00;;;21.10;49.00;;;;;;4989123;28;20469;-78
2023/05/24 04:57:34;;;;;;;6.40;3.10;;;21.10;49.00;;;;;;4988331;28;20573;-78
2023/05/24 05:00:03;;;;;;;7.50;3.93;;;21.20;49.00;;;;;;4991176;28;20454;-78
2023/05/24 05:02:32;;;;;;;6.10;2.93;;;21.20;49.10;;;;;;4989180;28;20465;-78
2023/05/24 05:05:00;;;;;;;7.93;3.37;;;21.10;49.00;;;;;;4991044;28;20473;-78
2023/05/24 05:07:30;;;;;;;5.40;2.70;;;21.10;49.10;;;;;;4991623;28;20500;-78
2023/05/24 05:09:58;;;;;;;6.80;3.07;;;21.10;49.10;;;;;;4986140;28;20473;-78
2023/05/24 05:12:26;;;;;;;10.00;3.40;;;21.10;49.20;;;;;;4985700;28;20496;-78
2023/05/24 05:14:54;;;;;;;5.33;3.30;;;21.20;49.10;;;;;;4991734;28;20867;-78
2023/05/24 05:17:22;;;;;;;7.40;3.40;;;21.20;49.20;;;;;;4992572;28;20453;-78
2023/05/24 05:19:51;;;;;;;7.10;3.13;;;21.20;49.20;;;;;;4984359;28;20523;-78
2023/05/24 05:22:19;;;;;;;9.07;3.37;;;21.20;49.10;;;;;;4987538;28;20469;-78
2023/05/24 05:24:48;;;;;;;10.73;3.50;;;21.20;49.30;;;;;;4989200;28;20474;-78
2023/05/24 05:27:16;;;;;;;4.93;2.93;;;21.20;49.10;;;;;;4992707;28;20475;-78
2023/05/24 05:29:45;;;;;;;6.20;3.40;;;21.20;49.20;;;;;;4989675;28;20480;-78
2023/05/24 05:32:13;;;;;;;7.47;3.80;;;21.30;49.20;;;;;;4989908;28;20450;-78
2023/05/24 05:34:40;;;;;;;6.50;3.27;;;21.20;49.20;;;;;;4980899;28;20469;-78
2023/05/24 05:37:09;;;;;;;8.27;3.33;;;21.30;49.20;;;;;;4992228;28;20453;-78
2023/05/24 05:39:37;;;;;;;6.87;3.60;;;21.30;49.20;;;;;;4992336;28;20441;-78
2023/05/24 05:42:07;;;;;;;7.33;3.73;;;21.30;49.30;;;;;;4992443;28;20457;-78
2023/05/24 05:44:36;;;;;;;6.23;3.60;;;21.30;49.20;;;;;;4987451;28;20543;-78
2023/05/24 05:47:06;;;;;;;8.43;4.00;;;21.30;49.20;;;;;;4989970;28;20445;-78
2023/05/24 05:49:35;;;;;;;5.00;3.17;;;21.30;49.10;;;;;;4991511;28;20985;-78
2023/05/24 05:52:03;;;;;;;6.60;3.27;;;21.30;49.30;;;;;;4991909;28;20457;-78
2023/05/24 05:54:31;;;;;;;4.83;3.33;;;21.30;49.40;;;;;;4982995;28;20469;-78
2023/05/24 05:56:59;;;;;;;9.27;3.57;;;21.30;50.00;;;;;;4990116;28;20445;-78
2023/05/24 05:59:30;;;;;;;7.57;3.37;;;21.40;49.20;;;;;;4988791;28;20517;-78
2023/05/24 06:01:57;;;;;;;5.43;3.50;;;21.40;49.20;;;;;;4990951;28;20480;-78
2023/05/24 06:04:26;;;;;;;8.17;3.40;;;21.40;49.30;;;;;;4992595;28;20523;-78
2023/05/24 06:06:54;;;;;;;8.03;3.90;;;21.40;49.10;;;;;;4992247;28;20831;-78
2023/05/24 06:09:22;;;;;;;14.33;4.00;;;21.40;49.10;;;;;;4991350;28;20469;-78
2023/05/24 06:11:50;;;;;;;11.00;3.83;;;21.40;49.80;;;;;;4987054;28;20453;-78
2023/05/24 06:14:20;;;;;;;4.37;3.00;;;21.40;49.20;;;;;;4989322;28;20523;-78
2023/05/24 06:16:53;;;;;;;8.87;3.47;;;21.50;49.30;;;;;;4990314;28;20532;-81
2023/05/24 06:19:23;;;;;;;8.97;3.40;;;21.50;49.20;;;;;;4993326;28;20447;-81
2023/05/24 06:21:51;;;;;;;5.23;3.30;;;21.50;49.20;;;;;;4991092;28;20515;-77
2023/05/24 06:24:20;;;;;;;7.30;3.53;;;21.50;49.30;;;;;;4992886;28;20461;-78
2023/05/24 06:26:48;;;;;;;6.57;3.67;;;21.50;49.30;;;;;;4987713;28;20453;-79
2023/05/24 06:29:18;;;;;;;7.40;3.90;;;21.50;49.20;;;;;;4994311;28;20559;-77
2023/05/24 06:31:46;;;;;;;6.50;2.90;;;21.60;49.50;;;;;;4986794;28;21040;-77
2023/05/24 06:34:17;;;;;;;5.60;3.03;;;21.60;49.30;;;;;;4984337;28;20476;-77
2023/05/24 06:36:47;;;;;;;7.50;3.27;;;21.70;49.20;;;;;;4994173;28;20449;-77
2023/05/24 06:39:16;;;;;;;4.77;2.97;;;21.70;49.30;;;;;;4979607;28;20441;-77
2023/05/24 06:41:44;;;;;;;7.87;3.33;;;21.70;49.40;;;;;;4995415;28;20457;-77
2023/05/24 06:44:13;;;;;;;6.60;3.13;;;21.70;49.30;;;;;;4989543;28;20469;-78
2023/05/24 06:46:41;;;;;;;6.90;3.40;;;21.70;49.40;;;;;;4990867;28;20453;-78
2023/05/24 06:49:09;;;;;;;6.23;3.60;;;21.80;49.40;;;;;;4994320;28;20477;-78
2023/05/24 06:51:38;;;;;;;7.47;3.43;;;21.80;49.20;;;;;;4994676;28;20453;-78
2023/05/24 06:54:06;;;;;;;6.93;3.37;;;21.90;49.40;;;;;;4986912;28;20520;-78
2023/05/24 06:56:35;;;;;;;3.80;3.30;;;22.00;49.30;;;;;;4994389;28;20445;-78
2023/05/24 06:59:03;;;;;;;5.13;3.40;;;22.00;49.30;;;;;;4994705;28;20495;-78
2023/05/24 07:01:31;;;;;;;8.23;3.80;;;22.00;49.20;;;;;;4994170;28;20495;-78
2023/05/24 07:04:00;;;;;;;6.93;3.20;;;22.10;49.20;;;;;;4994136;28;20464;-78
2023/05/24 07:06:28;;;;;;;5.73;2.80;;;22.20;49.10;;;;;;4994155;28;20426;-78
2023/05/24 07:08:57;;;;;;;6.80;3.17;;;22.20;49.10;;;;;;4994017;28;20504;-78
2023/05/24 07:11:26;;;;;;;3.20;2.90;;;22.20;48.90;;;;;;5000969;28;20453;-78
2023/05/24 07:13:54;;;;;;;7.03;3.30;;;22.20;48.90;;;;;;4996424;28;20473;-78
2023/05/24 07:16:22;;;;;;;4.50;2.97;;;22.30;49.10;;;;;;4991404;28;20504;-78
2023/05/24 07:18:50;;;;;;;5.70;2.80;;;22.30;48.80;;;;;;4994822;28;20468;-78
2023/05/24 07:21:18;;;;;;;6.30;3.20;;;22.30;48.90;;;;;;4987548;28;20581;-78
2023/05/24 07:23:46;;;;;;;5.73;3.07;;;22.40;48.80;;;;;;4995261;28;20465;-80
2023/05/24 07:26:16;;;;;;;6.97;3.43;;;22.40;48.80;;;;;;4996121;28;20449;-80
2023/05/24 07:28:44;;;;;;;6.07;2.90;;;22.40;48.90;;;;;;4994273;28;20548;-81
2023/05/24 07:31:12;;;;;;;6.30;2.90;;;22.40;48.90;;;;;;4996666;28;20849;-80
2023/05/24 07:33:41;;;;;;;4.73;2.90;;;22.40;48.80;;;;;;4993605;28;20458;-80
2023/05/24 07:36:09;;;;;;;3.90;2.60;;;22.40;48.80;;;;;;4994753;28;20480;-76
2023/05/24 07:38:37;;;;;;;19.93;5.00;;;22.50;48.90;;;;;;5003865;28;20474;-79
2023/05/24 07:41:06;;;;;;;19.47;5.23;;;21.90;48.80;;;;;;5002320;28;20452;-78
2023/05/24 07:43:36;;;;;;;24.03;5.43;;;21.20;48.00;;;;;;5001798;28;20472;-79
2023/05/24 07:46:04;;;;;;;23.30;5.20;;;20.50;47.40;;;;;;4998799;28;20476;-78
2023/05/24 07:48:33;;;;;;;20.87;6.37;;;20.30;47.60;;;;;;5001660;28;20499;-78
2023/05/24 07:51:01;;;;;;;25.97;5.27;;;20.10;47.00;;;;;;4999207;28;20449;-79
2023/05/24 07:53:30;;;;;;;27.80;5.90;;;19.70;47.90;;;;;;4999222;28;20483;-78
2023/05/24 07:55:58;;;;;;;29.53;6.60;;;19.20;49.50;;;;;;4993081;28;20458;-79
2023/05/24 07:58:27;;;;;;;23.63;5.63;;;19.20;51.60;;;;;;4994905;28;20457;-78
2023/05/24 08:00:56;;;;;;;24.00;5.20;;;20.00;51.70;;;;;;4995467;28;20974;-78
2023/05/24 08:03:25;;;;;;;26.60;5.40;;;20.60;50.10;;;;;;4989975;28;20449;-79
2023/05/24 08:05:53;;;;;;;24.83;5.60;;;21.10;48.80;;;;;;4992371;28;20500;-79
2023/05/24 08:08:21;;;;;;;20.60;5.10;;;21.50;47.80;;;;;;4985631;28;20457;-80
2023/05/24 08:10:50;;;;;;;19.37;5.10;;;21.60;47.10;;;;;;5001275;28;20480;-78
2023/05/24 08:13:48;;;;;;;13.33;5.00;;;21.80;46.80;;;;;;4996430;28;20467;-78
2023/05/24 08:16:34;;;;;;;17.43;4.97;;;22.00;46.40;;;;;;4989336;28;20452;-79
2023/05/24 08:19:03;;;;;;;16.52;4.88;;;22.10;45.90;;;;;;4990656;28;20525;-77
2023/05/24 08:21:32;;;;;;;18.30;4.60;;;22.10;45.70;;;;;;4991265;28;20200;-77
2023/05/24 08:24:00;;;;;;;19.47;4.67;;;22.10;46.10;;;;;;4990731;28;20497;-76
2023/05/24 08:26:28;;;;;;;14.70;5.23;;;22.20;45.90;;;;;;4990763;28;20456;-77
2023/05/24 08:28:57;;;;;;;12.60;4.83;;;22.40;45.70;;;;;;4991190;28;20446;-77
2023/05/24 08:31:26;;;;;;;11.93;4.33;;;22.50;45.40;;;;;;4991053;28;20449;-77
2023/05/24 08:33:56;;;;;;;12.80;5.03;;;22.60;45.20;;;;;;4991120;28;20524;-77
2023/05/24 08:36:24;;;;;;;10.23;4.30;;;22.70;44.90;;;;;;4984517;28;20437;-77
2023/05/24 08:38:52;;;;;;;11.60;4.37;;;22.70;44.70;;;;;;4991213;28;20457;-77
2023/05/24 08:41:21;;;;;;;12.90;4.40;;;22.90;44.80;;;;;;4992644;28;20448;-77
2023/05/24 08:43:49;;;;;;;13.50;5.43;;;22.90;44.60;;;;;;4990396;28;20465;-77
2023/05/24 08:46:18;;;;;;;10.80;4.40;;;22.90;44.50;;;;;;4991843;28;20449;-77
2023/05/24 08:48:46;;;;;;;12.90;4.67;;;23.00;44.40;;;;;;4991990;28;20531;-77
2023/05/24 08:51:16;;;;;;;12.80;5.00;;;23.00;44.20;;;;;;4991922;28;20473;-77
2023/05/24 08:53:47;;;;;;;14.07;4.57;;;23.00;44.20;;;;;;4986559;28;20556;-78
2023/05/24 08:56:17;;;;;;;17.13;5.67;;;23.00;44.30;;;;;;4992707;28;20516;-77
2023/05/24 08:58:45;;;;;;;12.30;5.40;;;23.00;44.20;;;;;;4991058;28;20449;-77
2023/05/24 09:01:14;;;;;;;13.30;5.77;;;23.00;44.30;;;;;;4992728;28;20445;-78
2023/05/24 09:03:42;;;;;;;11.93;6.27;;;23.00;44.20;;;;;;4991250;28;20469;-77
2023/05/24 09:06:10;;;;;;;13.87;6.33;;;23.00;44.40;;;;;;4990197;28;20469;-77
2023/05/24 09:08:40;;;;;;;15.80;6.50;;;22.90;44.30;;;;;;4991920;28;20445;-77
2023/05/24 09:11:10;;;;;;;16.70;6.73;;;23.00;44.30;;;;;;4991151;28;20477;-77
2023/05/24 09:13:39;;;;;;;18.73;7.13;;;22.90;44.90;;;;;;4991398;28;20457;-77
2023/05/24 09:16:07;;;;;;;18.17;7.70;;;23.00;44.50;;;;;;4991702;28;20445;-76
2023/05/24 09:18:35;;;;;;;15.73;7.32;;;23.00;44.50;;;;;;4991602;28;20473;-78
2023/05/24 09:21:03;;;;;;;16.13;7.03;;;23.10;44.10;;;;;;4993373;28;20306;-77
2023/05/24 09:23:32;;;;;;;14.57;7.40;;;23.00;44.70;;;;;;4988026;28;20453;-78
2023/05/24 09:26:06;;;;;;;20.20;8.20;;;23.00;44.60;;;;;;4992327;28;20450;-77
2023/05/24 09:28:35;;;;;;;16.13;7.33;;;23.10;44.60;;;;;;4991988;28;20444;-77
2023/05/24 09:31:03;;;;;;;12.70;6.90;;;23.20;44.60;;;;;;4991315;28;20523;-76
2023/05/24 09:33:35;;;;;;;12.07;6.63;;;23.20;44.70;;;;;;4991146;28;20525;-76
2023/05/24 09:36:04;;;;;;;13.03;7.27;;;23.30;44.50;;;;;;4990424;28;20528;-77
2023/05/24 09:38:34;;;;;;;15.50;6.93;;;23.30;44.60;;;;;;4991018;28;20453;-77
2023/05/24 09:41:06;;;;;;;14.90;7.00;;;23.30;44.40;;;;;;4991331;28;20445;-76
2023/05/24 09:43:36;;;;;;;13.10;6.03;;;23.30;45.10;;;;;;4991163;28;20519;-78
2023/05/24 09:46:04;;;;;;;10.30;6.13;;;23.30;44.50;;;;;;4991790;28;20449;-77
2023/05/24 09:48:32;;;;;;;13.13;6.63;;;23.40;44.70;;;;;;4990948;28;20453;-77
2023/05/24 09:51:05;;;;;;;14.13;6.30;;;23.40;44.50;;;;;;4990617;28;20535;-78
2023/05/24 09:53:34;;;;;;;13.33;6.57;;;23.50;44.40;;;;;;4989744;28;20449;-77
2023/05/24 09:56:04;;;;;;;14.27;6.80;;;23.50;44.30;;;;;;4993514;28;20449;-77
2023/05/24 09:58:33;;;;;;;8.60;5.73;;;23.50;44.50;;;;;;4993041;28;20473;-77
2023/05/24 10:01:05;;;;;;;12.27;6.13;;;23.50;44.30;;;;;;4995540;28;20466;-77
2023/05/24 10:03:33;;;;;;;12.13;5.93;;;23.50;44.40;;;;;;4996239;28;20449;-77
2023/05/24 10:06:03;;;;;;;13.97;6.50;;;23.50;44.40;;;;;;4994253;28;20453;-77
2023/05/24 10:08:32;;;;;;;11.90;6.23;;;23.50;44.30;;;;;;4994557;28;20532;-78
2023/05/24 10:11:00;;;;;;;13.00;6.53;;;23.60;44.40;;;;;;4998296;28;20476;-77
2023/05/24 10:13:29;;;;;;;13.30;6.70;;;23.70;44.20;;;;;;4994970;28;20452;-78
2023/05/24 10:15:57;;;;;;;8.57;5.60;;;23.70;44.10;;;;;;4999469;28;20520;-78
2023/05/24 10:18:25;;;;;;;9.80;5.33;;;23.80;44.10;;;;;;4998250;28;20429;-80
2023/05/24 10:20:54;;;;;;;16.03;6.57;;;23.80;44.10;;;;;;4996301;28;20521;-78
2023/05/24 10:23:22;;;;;;;12.77;5.93;;;23.80;44.10;;;;;;4995675;28;20437;-78
2023/05/24 10:25:59;;;;;;;15.03;6.60;;;23.90;44.20;;;;;;4998038;28;20519;-78
2023/05/24 10:28:32;;;;;;;10.73;5.83;;;23.90;44.10;;;;;;4997405;28;20452;-78
2023/05/24 10:31:10;;;;;;;11.93;6.17;;;24.10;44.20;;;;;;4997936;28;20479;-79
2023/05/24 10:33:43;;;;;;;10.60;5.10;;;24.20;44.00;;;;;;4997163;28;20456;-78
2023/05/24 10:36:13;;;;;;;16.40;5.80;;;24.30;43.90;;;;;;4997071;28;20480;-78
2023/05/24 10:38:41;;;;;;;11.10;5.43;;;24.40;43.80;;;;;;4996980;28;20450;-78
2023/05/24 10:41:11;;;;;;;12.63;5.70;;;24.40;43.70;;;;;;4996312;28;20515;-78
2023/05/24 10:43:45;;;;;;;13.30;5.47;;;24.40;43.60;;;;;;4996531;28;20453;-79
2023/05/24 10:46:33;;;;;;;9.50;4.90;;;24.50;43.60;;;;;;4988815;28;20438;-78
2023/05/24 10:49:04;;;;;;;14.20;5.60;;;24.50;43.70;;;;;;4995264;28;20449;-78
2023/05/24 10:51:37;;;;;;;8.93;5.47;;;24.60;43.80;;;;;;4995921;28;20488;-78
2023/05/24 10:54:21;;;;;;;10.80;5.27;;;24.70;43.70;;;;;;4996839;28;20476;-78
2023/05/24 10:56:50;;;;;;;12.10;5.70;;;24.80;43.70;;;;;;4996786;28;20939;-78
2023/05/24 10:59:33;;;;;;;9.30;5.37;;;25.10;43.50;;;;;;4996242;28;20449;-78
2023/05/24 11:02:02;;;;;;;8.53;5.10;;;25.10;43.30;;;;;;4996837;28;20426;-78
2023/05/24 11:04:31;;;;;;;10.23;5.50;;;25.00;43.30;;;;;;4995622;28;20470;-78
2023/05/24 11:07:02;;;;;;;10.27;5.50;;;25.10;43.40;;;;;;4996516;28;20457;-78
2023/05/24 11:09:30;;;;;;;11.27;5.00;;;25.00;43.40;;;;;;4995319;28;20449;-78
2023/05/24 11:12:02;;;;;;;18.63;5.40;;;25.00;43.50;;;;;;4996045;28;20507;-78
2023/05/24 11:14:32;;;;;;;8.33;5.07;;;24.90;43.60;;;;;;4994768;28;20489;-78
2023/05/24 11:17:00;;;;;;;10.60;4.97;;;24.90;43.80;;;;;;4996261;28;20512;-78
2023/05/24 11:19:34;;;;;;;9.40;5.33;;;24.90;43.80;;;;;;4996405;28;20433;-78
2023/05/24 11:22:02;;;;;;;10.40;4.60;;;24.90;43.80;;;;;;4996057;28;20509;-78
2023/05/24 11:24:31;;;;;;;11.30;5.20;;;25.10;44.00;;;;;;4996889;28;20472;-78
2023/05/24 11:27:00;;;;;;;7.77;4.57;;;25.10;43.70;;;;;;4996870;28;20461;-78
2023/05/24 11:29:29;;;;;;;8.33;4.63;;;25.30;43.60;;;;;;4996526;28;20434;-78
2023/05/24 11:32:03;;;;;;;10.80;4.80;;;25.60;43.60;;;;;;4996466;28;20477;-78
2023/05/24 11:34:31;;;;;;;8.17;4.50;;;26.10;43.60;;;;;;4996850;28;20533;-79
2023/05/24 11:37:00;;;;;;;5.80;4.37;;;26.90;43.30;;;;;;4997676;28;20452;-79
2023/05/24 11:39:31;;;;;;;9.03;4.57;;;28.20;42.90;;;;;;4996057;28;20424;-78
2023/05/24 11:42:01;;;;;;;8.47;4.80;;;28.80;40.10;;;;;;4996595;28;20425;-78
2023/05/24 11:44:30;;;;;;;9.00;4.93;;;28.70;39.10;;;;;;4995750;28;20465;-78
2023/05/24 11:47:00;;;;;;;9.70;4.50;;;28.30;39.20;;;;;;4993720;28;20447;-78
2023/05/24 11:49:28;;;;;;;9.60;4.40;;;27.80;39.70;;;;;;4993607;28;20426;-78
2023/05/24 11:51:59;;;;;;;9.13;4.40;;;27.50;40.20;;;;;;4995410;28;20473;-78
2023/05/24 11:54:31;;;;;;;8.30;4.50;;;27.20;40.70;;;;;;4986427;28;20461;-78
2023/05/24 11:56:59;;;;;;;5.50;4.10;;;27.00;41.10;;;;;;4996809;28;20429;-79
2023/05/24 11:59:30;;;;;;;7.57;4.57;;;26.90;41.40;;;;;;4996014;28;20453;-80
2023/05/24 12:02:02;;;;;;;9.57;4.40;;;26.80;41.50;;;;;;4997450;28;20437;-79
2023/05/24 12:04:31;;;;;;;8.63;4.40;;;27.00;42.00;;;;;;4995190;28;20527;-79
2023/05/24 12:06:59;;;;;;;6.90;4.47;;;27.20;41.70;;;;;;4993031;28;20419;-78
2023/05/24 12:09:28;;;;;;;9.13;4.10;;;27.10;41.20;;;;;;4995560;28;20427;-79
2023/05/24 12:11:57;;;;;;;6.70;4.00;;;27.00;41.50;;;;;;4993837;28;20443;-78
2023/05/24 12:14:29;;;;;;;9.47;4.17;;;26.90;41.80;;;;;;4993790;28;20450;-78
2023/05/24 12:16:58;;;;;;;7.50;4.50;;;26.80;42.00;;;;;;4994175;28;20453;-78
2023/05/24 12:19:33;;;;;;;5.83;4.20;;;26.80;42.10;;;;;;4993982;28;20452;-79
2023/05/24 12:22:04;;;;;;;9.53;4.00;;;26.90;42.10;;;;;;4995151;28;20436;-79
2023/05/24 12:24:33;;;;;;;6.90;4.00;;;26.80;42.10;;;;;;4991225;28;20431;-78
2023/05/24 12:27:02;;;;;;;9.23;4.60;;;26.60;42.20;;;;;;4990454;28;20408;-78
2023/05/24 12:29:33;;;;;;;12.33;4.40;;;26.50;42.40;;;;;;4994426;28;20438;-77
2023/05/24 12:32:01;;;;;;;10.27;4.27;;;26.50;42.70;;;;;;4991353;28;20496;-77
2023/05/24 12:34:30;;;;;;;7.33;3.93;;;26.50;43.30;;;;;;4993726;28;20465;-78
2023/05/24 12:36:59;;;;;;;7.63;4.00;;;26.40;42.60;;;;;;4990033;28;20461;-77
2023/05/24 12:39:30;;;;;;;8.53;4.00;;;26.40;42.70;;;;;;4994644;28;20500;-80
2023/05/24 12:42:00;;;;;;;8.80;4.30;;;26.40;42.80;;;;;;4992163;28;20448;-79
2023/05/24 12:44:29;;;;;;;5.67;3.60;;;26.30;42.80;;;;;;5000234;28;20647;-79
2023/05/24 12:46:57;;;;;;;7.57;3.60;;;26.30;43.00;;;;;;4999785;28;20524;-79
2023/05/24 12:49:26;;;;;;;6.27;4.13;;;26.30;43.10;;;;;;4994194;28;20441;-78
2023/05/24 12:51:56;;;;;;;5.30;3.80;;;26.30;43.20;;;;;;4995283;28;20515;-79
2023/05/24 12:54:25;;;;;;;11.67;4.53;;;26.20;43.10;;;;;;4980887;28;20471;-79
2023/05/24 12:56:53;;;;;;;4.50;3.37;;;26.20;43.10;;;;;;4993243;28;20434;-79
2023/05/24 12:59:26;;;;;;;7.50;3.83;;;26.20;43.30;;;;;;4992876;28;20449;-77
2023/05/24 13:01:55;;;;;;;6.90;4.00;;;26.10;43.30;;;;;;4992499;28;20445;-77